Impacts TAF Board INFO
FOR SITUATIONAL AWARENESS. NOT TO BE USED FOR FLIGHT PLANNING PURPOSES.
IDs:

KMSP - Minneapolis-St Paul, MN, US

Issued at 0150 UTC 26 Apr 2017
Updated at 0205 UTC 26 Apr 2017
Potential Impact None Slight Moderate High
Time0203Z 26/03Z 26/04Z 26/05Z 26/06Z 26/07Z 26/08Z 26/09Z 26/10Z 26/11Z 26/12Z 26/13Z 26/14Z 26/15Z>>
Type OBS PRVL PRVL PRVL PRVL PRVL PRVL PRVL PRVL PRVL PRVL PRVL PRVL PRVL
VIS 5 3 3 3 5 5 5 5 5 5 >6 >6 >6 >6
CIG 17 7 7 7 8 8 8 8 8 8 8 8 8 8
Cover OVC OVC OVC OVC OVC OVC OVC OVC OVC OVC OVC OVC OVC OVC
FltCat MVFR IFR IFR IFR IFR IFR IFR IFR IFR IFR IFR IFR IFR IFR
WX -RA BR -SHRA BR -SHRA BR -SHRA BR -RA BR -RA BR -RA BR -RA BR -RA BR -RA BR -SHRA -SHRA -SHRA -SHRA
WDir 50 30 30 30 30 30 30 30 30 30 360 360 360 360
WSpd 7 7 7 7 9 9 9 9 9 9 12 12 12 12
WGst -- -- -- -- -- -- -- -- -- -- 21 21 21 21

Raw TAF
KMSP 260150Z 2602/2706 03007KT 3SM -SHRA BR BKN007 OVC017
  FM260600 03009KT 5SM -RA BR OVC008
  FM261200 36012G21KT P6SM -SHRA OVC008
  FM261700 34012G18KT P6SM BKN008 OVC012
  FM262300 34010KT P6SM SCT010 BKN025


Raw METAR
KMSP 260203Z 05007KT 5SM -RA BR FEW007 OVC017 12/11 A2957 RMK AO2 P0001 T01220106
KMSP 260153Z 05007KT 5SM -RA BR BKN008 OVC017 12/11 A2957 RMK AO2 SLP014 P0005 T01220106
KMSP 260128Z 03007KT 4SM -RA BR BKN007 BKN017 OVC080 12/11 A2956 RMK AO2 P0005 T01220106
KMSP 260123Z 02008KT 4SM -RA BR SCT009 BKN060 OVC080 12/11 A2956 RMK AO2 P0004 T01220106
KMSP 260053Z 01008KT 3SM -RA BR SCT046 BKN060 OVC070 12/11 A2957 RMK AO2 SLP013 P0020 T01220111
KMSP 260045Z 03004KT 2SM RA BR FEW013 BKN050 OVC070 12/11 A2957 RMK AO2 P0018 T01220111
KMSP 260029Z 01007KT 1 1/2SM RA BR FEW007 SCT012 OVC048 12/11 A2956 RMK AO2 P0013 T01220106
KMSP 260021Z 01005KT 1 3/4SM RA BR FEW007 BKN016 OVC048 12/11 A2957 RMK AO2 P0009 T01220106
KMSP 260020Z 02005KT 2SM RA BR SCT007 BKN016 OVC048 12/11 A2957 RMK AO2 P0009 T01220106
KMSP 260012Z 02005KT 2SM R30L/5000VP6000FT RA BR BKN007 BKN016 OVC055 12/11 A2957 RMK AO2 P0006 T01220106
KMSP 252353Z 01003KT 2 1/2SM -RA BR SCT007 BKN026 OVC035 12/11 A2957 RMK AO2 SLP012 P0005 60016 T01220106 10139 20117 53002
KMSP 252335Z 00000KT 2 1/2SM RA BR BKN028 OVC035 12/11 A2956 RMK AO2 P0002 T01220106

METAR Board
Radar Display
Forecast Discussion

FOR SITUATIONAL AWARENESS. NOT TO BE USED FOR FLIGHT PLANNING PURPOSES.

Page loaded:  02:05 UTC  |   07:05 PM Pacific  |   08:05 PM Mountain  |   09:05 PM Central  |   10:05 PM Eastern

 

ADVISORIES

FORECASTS

FORECASTS

OBSERVATIONS

USER TOOLS

ABOUT US